Time;durP1;ratioP1;P1;durP2;ratioP2;P2;SDS_P1;SDS_P2;PMS_P1;PMS_P2;Temp;Humidity;BMP_temperature;BMP_pressure;BME280_temperature;BME280_humidity;BME280_pressure;Samples;Min_cycle;Max_cycle;Signal;HPM_P1;HPM_P2
2022/03/11 00:00:44;;;;;;;7.38;4.60;;;5.00;62.20;;;;;;5067687;28;20033;-71
2022/03/11 00:03:11;;;;;;;10.77;5.13;;;4.90;62.70;;;;;;5064502;28;20086;-71
2022/03/11 00:05:37;;;;;;;8.60;4.75;;;4.80;62.70;;;;;;5063178;28;20048;-71
2022/03/11 00:08:03;;;;;;;10.25;4.85;;;4.70;62.90;;;;;;5067722;28;20106;-71
2022/03/11 00:10:30;;;;;;;10.25;5.28;;;4.70;63.30;;;;;;5067606;28;20048;-72
2022/03/11 00:12:55;;;;;;;9.52;5.15;;;4.60;64.50;;;;;;5067490;28;20063;-71
2022/03/11 00:15:21;;;;;;;10.27;5.15;;;4.60;64.20;;;;;;5069823;28;20029;-71
2022/03/11 00:17:47;;;;;;;10.15;5.65;;;4.50;64.30;;;;;;5065354;28;20024;-71
2022/03/11 00:20:19;;;;;;;10.07;5.25;;;4.50;64.70;;;;;;5067707;28;20035;-72
2022/03/11 00:22:45;;;;;;;11.25;5.63;;;4.50;64.70;;;;;;5066101;28;20025;-71
2022/03/11 00:25:11;;;;;;;12.50;5.45;;;4.50;65.40;;;;;;5066436;28;20021;-71
2022/03/11 00:27:36;;;;;;;11.00;5.82;;;4.50;65.30;;;;;;5070595;28;20021;-72
2022/03/11 00:30:03;;;;;;;12.30;6.57;;;4.40;65.30;;;;;;5068905;28;20402;-72
2022/03/11 00:32:28;;;;;;;12.40;6.13;;;4.40;65.80;;;;;;5076034;28;20400;-71
2022/03/11 00:34:54;;;;;;;11.07;6.85;;;4.40;67.10;;;;;;5076858;28;20082;-71
2022/03/11 00:37:20;;;;;;;14.93;6.72;;;4.50;66.40;;;;;;5069343;28;20446;-72
2022/03/11 00:39:45;;;;;;;12.75;6.47;;;4.60;66.30;;;;;;5071780;28;20036;-72
2022/03/11 00:42:11;;;;;;;11.63;6.68;;;4.40;66.60;;;;;;5073444;28;20062;-71
2022/03/11 00:44:38;;;;;;;15.50;8.02;;;4.40;67.00;;;;;;5071155;28;20099;-71
2022/03/11 00:47:03;;;;;;;18.75;7.53;;;4.30;67.30;;;;;;5072598;28;20017;-71
2022/03/11 00:49:29;;;;;;;13.18;6.70;;;4.40;67.80;;;;;;5077517;28;20016;-71
2022/03/11 00:51:55;;;;;;;16.13;7.70;;;4.30;67.70;;;;;;5072966;28;20021;-72
2022/03/11 00:54:20;;;;;;;11.25;6.80;;;4.20;68.20;;;;;;5067289;28;20029;-72
2022/03/11 00:56:46;;;;;;;16.45;7.82;;;4.20;68.70;;;;;;5075347;28;20037;-72
2022/03/11 00:59:12;;;;;;;15.27;8.50;;;4.10;68.80;;;;;;5068428;28;20037;-72
2022/03/11 01:01:37;;;;;;;12.82;6.95;;;4.00;69.20;;;;;;5073606;28;20131;-71
2022/03/11 01:04:03;;;;;;;12.90;6.57;;;3.90;69.50;;;;;;5080614;28;20066;-72
2022/03/11 01:06:29;;;;;;;16.50;7.32;;;3.90;69.80;;;;;;5071794;28;20021;-71
2022/03/11 01:08:54;;;;;;;12.98;6.68;;;3.80;70.40;;;;;;5079112;28;20080;-71
2022/03/11 01:11:20;;;;;;;12.98;6.90;;;3.80;70.50;;;;;;5071376;28;20110;-70
2022/03/11 01:13:45;;;;;;;13.35;6.80;;;3.80;70.70;;;;;;5074557;28;20124;-71
2022/03/11 01:16:11;;;;;;;14.30;7.57;;;3.70;71.10;;;;;;5076013;28;20091;-71
2022/03/11 01:18:37;;;;;;;14.38;6.75;;;3.60;71.10;;;;;;5070892;28;20033;-71
2022/03/11 01:21:03;;;;;;;17.92;8.48;;;3.60;72.30;;;;;;5073206;28;20043;-72
2022/03/11 01:23:29;;;;;;;14.65;6.72;;;3.60;72.00;;;;;;5071775;28;20386;-71
2022/03/11 01:25:55;;;;;;;14.70;7.53;;;3.50;72.10;;;;;;5077371;28;21190;-71
2022/03/11 01:28:21;;;;;;;16.75;7.70;;;3.40;72.70;;;;;;5071938;28;20430;-71
2022/03/11 01:30:46;;;;;;;15.30;7.68;;;3.40;73.50;;;;;;5075437;28;20021;-72
2022/03/11 01:33:12;;;;;;;13.35;7.40;;;3.40;74.50;;;;;;5069711;28;20032;-71
2022/03/11 01:35:38;;;;;;;14.32;8.43;;;3.40;74.50;;;;;;5071250;28;20109;-70
2022/03/11 01:38:03;;;;;;;13.43;7.75;;;3.40;74.90;;;;;;5070885;28;20021;-71
2022/03/11 01:40:29;;;;;;;19.85;8.70;;;3.40;75.40;;;;;;5067518;28;20025;-71
2022/03/11 01:42:54;;;;;;;18.85;9.25;;;3.40;75.90;;;;;;5067971;28;20085;-71
2022/03/11 01:45:20;;;;;;;18.05;8.70;;;3.50;76.80;;;;;;5068745;28;20044;-70
2022/03/11 01:47:46;;;;;;;14.98;8.43;;;3.40;76.90;;;;;;5070549;28;20041;-73
2022/03/11 01:50:12;;;;;;;18.02;8.10;;;3.40;77.10;;;;;;5069518;28;20021;-71
2022/03/11 01:52:38;;;;;;;17.15;9.15;;;3.40;77.80;;;;;;5068468;28;20033;-72
2022/03/11 01:55:05;;;;;;;18.27;8.98;;;3.40;78.40;;;;;;5073246;28;20025;-71
2022/03/11 01:57:35;;;;;;;15.57;9.07;;;3.30;78.70;;;;;;5073032;28;20028;-70
2022/03/11 02:00:06;;;;;;;15.80;9.25;;;3.30;79.60;;;;;;5069365;28;20025;-70
2022/03/11 02:02:32;;;;;;;20.98;10.82;;;3.30;80.20;;;;;;5065785;28;20362;-70
2022/03/11 02:04:57;;;;;;;16.20;8.77;;;3.20;80.80;;;;;;5064800;28;20024;-71
2022/03/11 02:07:23;;;;;;;18.73;9.10;;;3.10;81.70;;;;;;5070312;28;20032;-71
2022/03/11 02:09:49;;;;;;;18.67;9.55;;;3.10;82.50;;;;;;5071332;28;20021;-71
2022/03/11 02:12:28;;;;;;;18.73;9.32;;;3.10;83.80;;;;;;5070085;28;20496;-71
2022/03/11 02:14:55;;;;;;;21.48;10.73;;;3.10;84.40;;;;;;5073354;28;20070;-71
2022/03/11 02:17:20;;;;;;;20.50;10.60;;;3.00;85.00;;;;;;5066726;28;20017;-71
2022/03/11 02:19:46;;;;;;;23.05;11.00;;;3.10;86.00;;;;;;5070140;28;20133;-72
2022/03/11 02:22:15;;;;;;;18.73;9.85;;;3.10;87.10;;;;;;5074042;28;20035;-72
2022/03/11 02:24:40;;;;;;;17.95;10.63;;;3.10;87.50;;;;;;5074199;28;20048;-71
2022/03/11 02:27:06;;;;;;;23.13;11.48;;;3.00;87.70;;;;;;5072149;28;20499;-71
2022/03/11 02:29:31;;;;;;;18.92;9.65;;;3.00;88.10;;;;;;5068091;28;20099;-71
2022/03/11 02:31:57;;;;;;;19.02;11.23;;;3.00;89.30;;;;;;5068419;28;20047;-71
2022/03/11 02:34:23;;;;;;;22.40;11.40;;;2.90;90.00;;;;;;5067832;28;20396;-70
2022/03/11 02:36:48;;;;;;;24.27;11.15;;;3.00;90.40;;;;;;5068811;28;20536;-71
2022/03/11 02:39:14;;;;;;;23.15;12.23;;;2.90;90.60;;;;;;5068311;28;20039;-71
2022/03/11 02:41:42;;;;;;;23.60;11.63;;;3.00;91.10;;;;;;5069296;28;20032;-71
2022/03/11 02:44:08;;;;;;;23.38;12.60;;;3.00;91.20;;;;;;5067490;28;20039;-71
2022/03/11 02:46:34;;;;;;;22.10;11.10;;;2.90;91.60;;;;;;5071162;28;20112;-71
2022/03/11 02:49:00;;;;;;;21.00;11.13;;;2.90;91.90;;;;;;5071149;28;20671;-71
2022/03/11 02:51:25;;;;;;;22.73;12.50;;;2.90;92.10;;;;;;5066534;28;20084;-71
2022/03/11 02:53:51;;;;;;;23.13;12.50;;;2.90;92.20;;;;;;5063594;28;20481;-71
2022/03/11 02:56:18;;;;;;;26.70;13.20;;;2.90;92.50;;;;;;5066861;28;20039;-71
2022/03/11 02:58:43;;;;;;;28.05;13.38;;;2.90;93.00;;;;;;5068716;28;20071;-71
2022/03/11 03:01:09;;;;;;;26.88;13.70;;;2.80;93.20;;;;;;5071412;28;20040;-70
2022/03/11 03:03:36;;;;;;;27.27;13.57;;;2.90;93.30;;;;;;5070239;28;20071;-71
2022/03/11 03:06:03;;;;;;;31.02;13.68;;;2.80;93.50;;;;;;5068723;28;20036;-71
2022/03/11 03:08:28;;;;;;;28.17;12.63;;;2.80;93.50;;;;;;5068294;28;20040;-71
2022/03/11 03:10:54;;;;;;;36.95;14.10;;;2.80;93.90;;;;;;5063286;28;20358;-71
2022/03/11 03:13:20;;;;;;;23.77;12.43;;;2.70;94.30;;;;;;5067711;28;20029;-71
2022/03/11 03:15:45;;;;;;;25.92;12.98;;;2.70;94.50;;;;;;5071669;28;20075;-71
2022/03/11 03:18:11;;;;;;;24.88;13.38;;;2.70;94.60;;;;;;5076842;28;20032;-72
2022/03/11 03:20:37;;;;;;;26.95;13.90;;;2.60;94.60;;;;;;5066692;28;20365;-73
2022/03/11 03:23:02;;;;;;;26.92;13.05;;;2.70;94.80;;;;;;5069126;28;20032;-70
2022/03/11 03:25:28;;;;;;;27.83;14.18;;;2.60;94.90;;;;;;5070002;28;20031;-71
2022/03/11 03:27:53;;;;;;;29.15;15.00;;;2.60;95.10;;;;;;5064707;28;20057;-69
2022/03/11 03:30:19;;;;;;;29.77;14.50;;;2.60;95.10;;;;;;5076696;28;20025;-71
2022/03/11 03:32:45;;;;;;;25.70;13.57;;;2.50;95.20;;;;;;5070013;28;20040;-71
2022/03/11 03:35:13;;;;;;;26.67;14.48;;;2.50;95.30;;;;;;5073290;28;20417;-71
2022/03/11 03:37:39;;;;;;;31.15;14.65;;;2.50;95.40;;;;;;5069747;28;20024;-71
2022/03/11 03:40:07;;;;;;;29.85;15.77;;;2.50;95.70;;;;;;5071660;28;20040;-71
2022/03/11 03:42:34;;;;;;;26.33;14.77;;;2.50;95.60;;;;;;5070672;28;20524;-71
2022/03/11 03:44:59;;;;;;;26.77;13.15;;;2.50;95.70;;;;;;5063122;28;20020;-71
2022/03/11 03:47:25;;;;;;;31.17;14.77;;;2.50;95.80;;;;;;5072899;28;20025;-70
2022/03/11 03:49:51;;;;;;;26.40;14.75;;;2.40;96.00;;;;;;5070243;28;20763;-71
2022/03/11 03:52:17;;;;;;;31.80;16.27;;;2.40;96.00;;;;;;5068984;28;20025;-70
2022/03/11 03:54:44;;;;;;;34.83;15.32;;;2.40;96.10;;;;;;5061780;28;20021;-71
2022/03/11 03:57:10;;;;;;;29.80;15.70;;;2.40;96.20;;;;;;5065320;28;20017;-71
2022/03/11 03:59:37;;;;;;;31.55;16.13;;;2.30;96.20;;;;;;5071858;28;20350;-72
2022/03/11 04:02:03;;;;;;;28.10;14.30;;;2.30;96.30;;;;;;5073270;28;20020;-71
2022/03/11 04:04:29;;;;;;;28.05;14.48;;;2.20;96.50;;;;;;5071648;28;20034;-71
2022/03/11 04:06:54;;;;;;;27.67;14.85;;;2.20;96.90;;;;;;5065485;28;20100;-72
2022/03/11 04:09:20;;;;;;;29.33;14.55;;;2.20;96.90;;;;;;5071692;28;20029;-71
2022/03/11 04:11:46;;;;;;;29.58;14.70;;;2.20;96.70;;;;;;5072203;28;20078;-71
2022/03/11 04:14:12;;;;;;;29.50;15.32;;;2.20;96.70;;;;;;5072631;28;20087;-72
2022/03/11 04:16:38;;;;;;;27.15;14.32;;;2.10;96.70;;;;;;5072578;28;20100;-72
2022/03/11 04:19:04;;;;;;;28.00;14.75;;;2.20;96.80;;;;;;5070951;28;20060;-71
2022/03/11 04:21:30;;;;;;;31.23;15.60;;;2.10;96.80;;;;;;5070138;28;20036;-72
2022/03/11 04:23:56;;;;;;;29.13;14.73;;;2.10;96.70;;;;;;5070019;28;20062;-71
2022/03/11 04:26:21;;;;;;;31.52;15.05;;;2.10;96.70;;;;;;5072060;28;20078;-72
2022/03/11 04:28:47;;;;;;;31.05;14.80;;;2.10;96.80;;;;;;5071676;28;20099;-72
2022/03/11 04:31:13;;;;;;;25.05;13.82;;;2.00;96.70;;;;;;5074856;28;20032;-71
2022/03/11 04:33:40;;;;;;;28.08;15.35;;;2.00;96.90;;;;;;5063442;28;20496;-71
2022/03/11 04:36:06;;;;;;;28.70;15.00;;;2.00;96.90;;;;;;5061781;28;20028;-71
2022/03/11 04:38:32;;;;;;;28.50;15.02;;;2.00;96.80;;;;;;5065805;28;20052;-70
2022/03/11 04:40:59;;;;;;;28.38;13.82;;;2.00;96.90;;;;;;5065094;28;20029;-71
2022/03/11 04:43:25;;;;;;;28.55;15.40;;;1.90;97.10;;;;;;5069912;28;20028;-72
2022/03/11 04:45:51;;;;;;;28.10;14.48;;;1.90;97.10;;;;;;5067138;28;20385;-71
2022/03/11 04:48:17;;;;;;;28.02;14.27;;;1.90;97.00;;;;;;5064078;28;20060;-71
2022/03/11 04:50:43;;;;;;;29.05;14.05;;;1.90;96.90;;;;;;5070020;28;20035;-71
2022/03/11 04:53:09;;;;;;;29.02;15.20;;;1.80;96.70;;;;;;5064021;28;20025;-71
2022/03/11 04:55:38;;;;;;;30.83;14.63;;;1.80;96.80;;;;;;5062508;28;20036;-71
2022/03/11 04:58:04;;;;;;;33.40;13.90;;;1.80;96.80;;;;;;5071586;28;20123;-71
2022/03/11 05:00:30;;;;;;;29.42;15.70;;;1.70;96.60;;;;;;5068860;28;20092;-70
2022/03/11 05:02:56;;;;;;;29.10;14.10;;;1.70;96.50;;;;;;5067736;28;20028;-70
2022/03/11 05:05:21;;;;;;;26.38;13.10;;;1.80;96.40;;;;;;5067918;28;20342;-70
2022/03/11 05:07:47;;;;;;;25.08;13.13;;;1.70;96.40;;;;;;5064271;28;20028;-70
2022/03/11 05:10:14;;;;;;;30.35;14.57;;;1.70;96.30;;;;;;5064377;28;20079;-71
2022/03/11 05:12:40;;;;;;;29.75;15.20;;;1.70;96.20;;;;;;5064130;28;20435;-69
2022/03/11 05:15:08;;;;;;;28.20;13.82;;;1.60;96.30;;;;;;5067340;28;20025;-70
2022/03/11 05:17:34;;;;;;;26.77;13.18;;;1.60;96.10;;;;;;5067836;28;20130;-70
2022/03/11 05:19:59;;;;;;;29.48;13.50;;;1.60;95.80;;;;;;5071623;28;20078;-71
2022/03/11 05:22:26;;;;;;;26.13;13.60;;;1.60;95.70;;;;;;5070203;28;20044;-72
2022/03/11 05:24:51;;;;;;;25.60;12.60;;;1.60;95.60;;;;;;5061163;28;20079;-71
2022/03/11 05:27:17;;;;;;;24.98;13.15;;;1.50;95.60;;;;;;5063776;28;20512;-72
2022/03/11 05:29:43;;;;;;;27.55;12.23;;;1.50;95.60;;;;;;5072830;28;20028;-72
2022/03/11 05:32:09;;;;;;;24.17;12.82;;;1.50;95.50;;;;;;5068596;28;20576;-70
2022/03/11 05:34:39;;;;;;;26.33;13.55;;;1.50;95.60;;;;;;5066128;28;20113;-72
2022/03/11 05:37:06;;;;;;;22.92;11.63;;;1.50;95.40;;;;;;5061185;28;20383;-72
2022/03/11 05:39:32;;;;;;;26.55;12.93;;;1.40;95.30;;;;;;5063656;28;20107;-71
2022/03/11 05:41:58;;;;;;;25.38;12.55;;;1.40;95.30;;;;;;5065836;28;20075;-71
2022/03/11 05:44:24;;;;;;;26.73;12.32;;;1.40;95.10;;;;;;5064925;28;20056;-72
2022/03/11 05:46:52;;;;;;;29.13;13.25;;;1.40;95.00;;;;;;5059902;28;20542;-72
2022/03/11 05:49:18;;;;;;;23.45;12.07;;;1.40;94.70;;;;;;5071602;28;20089;-72
2022/03/11 05:51:44;;;;;;;28.23;12.93;;;1.40;94.70;;;;;;5069334;28;20036;-72
2022/03/11 05:54:09;;;;;;;25.90;12.23;;;1.40;94.40;;;;;;5059654;28;20029;-71
2022/03/11 05:56:37;;;;;;;27.25;11.73;;;1.40;94.30;;;;;;5064762;28;20028;-73
2022/03/11 05:59:04;;;;;;;24.55;12.32;;;1.40;94.30;;;;;;5062239;28;20061;-71
2022/03/11 06:01:34;;;;;;;21.40;11.00;;;1.40;94.50;;;;;;5061039;28;20170;-71
2022/03/11 06:04:01;;;;;;;24.73;11.52;;;1.40;94.30;;;;;;5064627;28;20041;-72
2022/03/11 06:06:27;;;;;;;26.88;10.77;;;1.40;94.00;;;;;;5066494;28;20019;-72
2022/03/11 06:08:53;;;;;;;21.73;10.20;;;1.40;93.70;;;;;;5062146;28;20034;-71
2022/03/11 06:11:19;;;;;;;22.00;11.15;;;1.40;93.50;;;;;;5065614;28;20021;-71
2022/03/11 06:13:44;;;;;;;21.65;10.82;;;1.40;93.30;;;;;;5065157;28;20064;-71
2022/03/11 06:16:10;;;;;;;21.90;11.20;;;1.40;93.30;;;;;;5065465;28;20470;-70
2022/03/11 06:18:36;;;;;;;26.10;11.43;;;1.40;93.10;;;;;;5061890;28;20029;-71
2022/03/11 06:21:01;;;;;;;22.02;11.00;;;1.40;93.00;;;;;;5067648;28;20033;-71
2022/03/11 06:23:29;;;;;;;22.23;10.82;;;1.40;92.80;;;;;;5065115;28;20033;-70
2022/03/11 06:25:55;;;;;;;19.80;10.60;;;1.50;92.50;;;;;;5066229;28;20486;-70
2022/03/11 06:28:21;;;;;;;23.67;11.20;;;1.60;92.60;;;;;;5069948;28;20149;-70
2022/03/11 06:30:47;;;;;;;20.48;10.73;;;1.60;92.20;;;;;;5065955;28;20124;-69
2022/03/11 06:33:13;;;;;;;19.40;10.32;;;1.60;91.90;;;;;;5069977;28;20142;-71
2022/03/11 06:35:39;;;;;;;19.95;9.70;;;1.60;91.70;;;;;;5063820;28;20029;-70
2022/03/11 06:38:05;;;;;;;22.73;9.68;;;1.70;91.40;;;;;;5059607;28;20033;-71
2022/03/11 06:40:31;;;;;;;21.48;10.00;;;1.70;91.20;;;;;;5068489;28;20085;-72
2022/03/11 06:42:56;;;;;;;23.27;11.07;;;1.80;91.10;;;;;;5065900;28;20024;-73
2022/03/11 06:45:22;;;;;;;20.63;10.38;;;1.70;90.80;;;;;;5065751;28;20029;-72
2022/03/11 06:47:49;;;;;;;19.73;9.60;;;1.80;91.10;;;;;;5073190;28;20020;-72
2022/03/11 06:50:16;;;;;;;23.15;10.70;;;1.90;90.80;;;;;;5063768;28;20086;-73
2022/03/11 06:52:42;;;;;;;17.98;9.63;;;1.90;90.60;;;;;;5060599;28;20029;-73
2022/03/11 06:55:09;;;;;;;22.02;9.27;;;2.00;90.30;;;;;;5063573;28;20036;-72
2022/03/11 06:57:35;;;;;;;21.33;10.93;;;2.10;90.10;;;;;;5068027;28;20642;-73
2022/03/11 07:00:01;;;;;;;19.40;10.55;;;2.10;89.90;;;;;;5065057;28;20082;-72
2022/03/11 07:02:27;;;;;;;15.60;8.70;;;2.20;89.90;;;;;;5071767;28;20035;-72
2022/03/11 07:04:52;;;;;;;21.40;9.73;;;2.20;88.50;;;;;;5066720;28;20024;-71
2022/03/11 07:07:18;;;;;;;23.30;10.15;;;2.20;88.50;;;;;;5064237;28;20031;-72
2022/03/11 07:09:44;;;;;;;19.02;9.80;;;2.30;87.90;;;;;;5062710;28;20174;-71
2022/03/11 07:12:10;;;;;;;19.48;9.18;;;2.30;87.20;;;;;;5062771;28;20025;-70
2022/03/11 07:14:36;;;;;;;21.88;9.05;;;2.40;86.90;;;;;;5061334;28;20035;-73
2022/03/11 07:17:06;;;;;;;17.73;8.95;;;2.50;86.80;;;;;;5064387;28;20461;-73
2022/03/11 07:19:32;;;;;;;21.77;9.15;;;2.50;87.40;;;;;;5063558;28;20021;-72
2022/03/11 07:22:02;;;;;;;19.35;9.18;;;2.70;86.60;;;;;;5063490;28;20393;-71
2022/03/11 07:24:28;;;;;;;17.92;9.90;;;2.70;86.10;;;;;;5067610;28;20115;-71
2022/03/11 07:26:54;;;;;;;19.27;9.15;;;2.70;85.20;;;;;;5067948;28;20089;-71
2022/03/11 07:29:20;;;;;;;24.13;8.63;;;2.90;85.30;;;;;;5065791;28;20450;-71
2022/03/11 07:31:45;;;;;;;18.77;9.15;;;3.00;85.10;;;;;;5068435;28;20032;-72
2022/03/11 07:34:11;;;;;;;18.58;8.98;;;3.10;85.00;;;;;;5063001;28;20043;-72
2022/03/11 07:36:38;;;;;;;17.70;8.98;;;3.10;84.40;;;;;;5057166;28;20043;-72
2022/03/11 07:39:04;;;;;;;19.17;9.10;;;3.20;83.50;;;;;;5067961;28;20030;-72
2022/03/11 07:41:31;;;;;;;16.92;8.63;;;3.30;82.80;;;;;;5068429;28;20542;-71
2022/03/11 07:43:56;;;;;;;17.58;9.02;;;3.40;82.40;;;;;;5068128;28;20020;-71
2022/03/11 07:46:23;;;;;;;19.45;9.10;;;3.50;82.00;;;;;;5062239;28;20513;-71
2022/03/11 07:48:50;;;;;;;16.98;9.13;;;3.60;81.00;;;;;;5062043;28;20028;-71
2022/03/11 07:51:16;;;;;;;18.92;8.27;;;3.60;80.90;;;;;;5063419;28;20025;-72
2022/03/11 07:53:42;;;;;;;16.80;8.93;;;3.70;80.90;;;;;;5068205;28;20027;-71
2022/03/11 07:56:10;;;;;;;20.70;9.10;;;3.80;80.70;;;;;;5064832;28;20040;-71
2022/03/11 07:58:37;;;;;;;16.33;8.45;;;3.80;80.20;;;;;;5058228;28;20021;-72
2022/03/11 08:01:04;;;;;;;18.42;9.93;;;3.90;79.50;;;;;;5068715;28;20090;-71
2022/03/11 08:03:30;;;;;;;16.88;8.80;;;4.00;79.50;;;;;;5065450;28;20024;-71
2022/03/11 08:05:56;;;;;;;18.42;8.80;;;4.00;79.30;;;;;;5068136;28;20024;-71
2022/03/11 08:08:22;;;;;;;17.48;9.07;;;4.10;78.80;;;;;;5064520;28;20021;-71
2022/03/11 08:10:48;;;;;;;20.60;9.40;;;4.20;78.50;;;;;;5061996;28;20059;-71
2022/03/11 08:13:14;;;;;;;18.50;8.50;;;4.40;77.90;;;;;;5061546;28;20040;-71
2022/03/11 08:15:40;;;;;;;17.65;8.60;;;4.40;77.20;;;;;;5060565;28;20028;-72
2022/03/11 08:18:05;;;;;;;15.98;8.40;;;4.50;76.80;;;;;;5063931;28;20029;-71
2022/03/11 08:20:31;;;;;;;15.80;7.78;;;4.60;76.50;;;;;;5065436;28;20024;-71
2022/03/11 08:22:57;;;;;;;14.60;8.30;;;4.70;76.30;;;;;;5059344;28;20036;-71
2022/03/11 08:25:26;;;;;;;19.10;9.52;;;4.80;75.80;;;;;;5061763;28;20245;-72
2022/03/11 08:27:56;;;;;;;23.75;11.63;;;4.80;76.40;;;;;;5068399;28;20027;-71
2022/03/11 08:30:24;;;;;;;23.10;11.23;;;4.90;77.40;;;;;;5069507;28;20595;-71
2022/03/11 08:32:51;;;;;;;22.02;11.63;;;4.90;77.10;;;;;;5062906;28;20705;-71
2022/03/11 08:35:17;;;;;;;19.17;9.80;;;5.00;77.40;;;;;;5066335;28;20032;-71
2022/03/11 08:37:44;;;;;;;20.65;10.93;;;5.00;75.70;;;;;;5050596;28;20102;-71
2022/03/11 08:40:10;;;;;;;21.38;11.38;;;5.10;76.90;;;;;;5067765;28;20039;-72
2022/03/11 08:42:38;;;;;;;22.77;11.30;;;5.20;77.10;;;;;;5062158;28;20124;-71
2022/03/11 08:45:05;;;;;;;19.77;10.65;;;5.20;76.80;;;;;;5066744;28;20032;-71
2022/03/11 08:47:31;;;;;;;19.75;11.02;;;5.20;76.50;;;;;;5063405;28;20104;-72
2022/03/11 08:49:57;;;;;;;22.52;11.18;;;5.20;76.50;;;;;;5062974;28;20159;-71
2022/03/11 08:52:24;;;;;;;21.27;11.02;;;5.20;76.60;;;;;;5066546;28;20043;-72
2022/03/11 08:54:51;;;;;;;21.10;11.50;;;5.20;75.90;;;;;;5071817;28;21177;-72
2022/03/11 08:57:17;;;;;;;24.75;12.18;;;5.20;76.60;;;;;;5068461;28;20051;-71
2022/03/11 08:59:42;;;;;;;19.90;10.27;;;5.30;76.60;;;;;;5064507;28;20025;-71
2022/03/11 09:02:08;;;;;;;20.25;11.63;;;5.30;76.00;;;;;;5067340;28;20056;-71
2022/03/11 09:04:35;;;;;;;21.88;11.63;;;5.30;76.20;;;;;;5064874;28;20079;-72
2022/03/11 09:07:02;;;;;;;21.40;12.23;;;5.30;76.40;;;;;;5065742;28;20074;-72
2022/03/11 09:09:29;;;;;;;24.38;10.70;;;5.40;76.50;;;;;;5067849;28;20025;-71
2022/03/11 09:11:54;;;;;;;20.52;11.15;;;5.50;75.40;;;;;;5067990;28;20025;-72
2022/03/11 09:14:20;;;;;;;20.85;10.70;;;5.50;75.50;;;;;;5067886;28;20126;-71
2022/03/11 09:16:46;;;;;;;24.23;11.73;;;5.60;75.70;;;;;;5064661;28;21067;-72
2022/03/11 09:19:12;;;;;;;24.88;12.55;;;5.70;75.90;;;;;;5064399;28;20465;-71
2022/03/11 09:21:38;;;;;;;21.13;11.20;;;5.80;75.40;;;;;;5068966;28;20016;-73
2022/03/11 09:24:04;;;;;;;23.10;11.60;;;5.80;75.30;;;;;;5070696;28;20396;-71
2022/03/11 09:26:30;;;;;;;22.58;11.73;;;5.90;75.00;;;;;;5069675;28;20445;-70
2022/03/11 09:28:56;;;;;;;29.67;12.60;;;6.00;75.20;;;;;;5065665;28;20104;-71
2022/03/11 09:31:21;;;;;;;21.67;11.75;;;6.10;75.20;;;;;;5067869;28;20070;-72
2022/03/11 09:33:47;;;;;;;24.52;12.18;;;6.10;75.00;;;;;;5066862;28;20452;-73
2022/03/11 09:36:13;;;;;;;22.40;12.02;;;6.20;75.00;;;;;;5064254;28;21649;-72
2022/03/11 09:38:39;;;;;;;20.30;11.07;;;6.30;75.00;;;;;;5062439;28;20115;-70
2022/03/11 09:41:06;;;;;;;24.73;11.73;;;6.40;74.80;;;;;;5064959;28;20194;-74
2022/03/11 09:43:33;;;;;;;21.95;11.65;;;6.50;74.40;;;;;;5066368;28;20428;-72
2022/03/11 09:45:59;;;;;;;25.52;11.77;;;6.50;74.30;;;;;;5070277;28;20025;-73
2022/03/11 09:48:27;;;;;;;25.02;11.80;;;6.60;74.00;;;;;;5067802;28;20021;-77
2022/03/11 09:50:54;;;;;;;20.70;10.93;;;6.70;73.00;;;;;;5067256;28;20056;-72
2022/03/11 09:53:19;;;;;;;24.40;11.25;;;6.80;72.20;;;;;;5069628;28;20028;-72
2022/03/11 09:55:45;;;;;;;17.60;9.70;;;6.90;71.70;;;;;;5066661;28;20024;-72
2022/03/11 09:58:11;;;;;;;19.02;9.57;;;7.00;70.50;;;;;;5065870;28;20123;-71
2022/03/11 10:00:38;;;;;;;19.88;10.10;;;7.10;70.00;;;;;;5067447;28;20112;-73
2022/03/11 10:03:04;;;;;;;18.80;10.48;;;7.20;69.60;;;;;;5069583;28;20119;-71
2022/03/11 10:05:50;;;;;;;18.73;9.38;;;7.30;69.40;;;;;;5075254;28;20112;-71
2022/03/11 10:08:16;;;;;;;20.95;10.15;;;7.40;68.80;;;;;;5069408;28;21353;-72
2022/03/11 10:10:44;;;;;;;18.50;9.52;;;7.50;68.60;;;;;;5067633;28;20056;-71
2022/03/11 10:13:11;;;;;;;15.02;9.00;;;7.60;68.00;;;;;;5068097;28;20035;-72
2022/03/11 10:15:39;;;;;;;20.50;10.55;;;7.60;68.00;;;;;;5061534;28;20420;-71
2022/03/11 10:18:09;;;;;;;19.80;10.05;;;7.70;68.30;;;;;;5069373;28;20025;-71
2022/03/11 10:20:35;;;;;;;20.77;11.88;;;7.70;67.50;;;;;;5065998;28;20033;-71
2022/03/11 10:23:07;;;;;;;17.38;9.00;;;7.80;67.40;;;;;;5062794;28;20032;-71
2022/03/11 10:25:33;;;;;;;19.90;9.98;;;7.90;67.30;;;;;;5065538;28;20028;-70
2022/03/11 10:28:11;;;;;;;20.27;9.30;;;8.00;67.10;;;;;;5072168;28;20043;-71
2022/03/11 10:30:42;;;;;;;19.67;10.05;;;8.10;66.60;;;;;;5060867;28;20029;-71
2022/03/11 10:33:11;;;;;;;18.33;9.68;;;8.30;66.30;;;;;;5062052;28;20407;-69
2022/03/11 10:35:36;;;;;;;17.38;9.30;;;8.30;66.00;;;;;;5063222;28;20108;-70
2022/03/11 10:38:11;;;;;;;20.10;10.20;;;8.30;65.50;;;;;;5072036;28;20112;-69
2022/03/11 10:40:41;;;;;;;16.65;8.80;;;8.40;65.60;;;;;;5068862;28;20056;-70
2022/03/11 10:43:16;;;;;;;18.13;10.13;;;8.40;65.30;;;;;;5067553;28;20036;-70
2022/03/11 10:45:49;;;;;;;19.20;10.10;;;8.40;65.00;;;;;;5066447;28;20120;-70
2022/03/11 10:48:16;;;;;;;18.77;10.05;;;8.50;65.20;;;;;;5064239;28;20021;-69
2022/03/11 10:50:42;;;;;;;16.20;9.82;;;8.50;64.80;;;;;;5066027;28;20020;-70
2022/03/11 10:53:09;;;;;;;15.75;9.85;;;8.60;64.40;;;;;;5058262;28;20028;-70
2022/03/11 10:55:39;;;;;;;18.35;9.35;;;8.60;64.50;;;;;;5065651;28;20074;-70
2022/03/11 10:58:05;;;;;;;18.70;9.20;;;8.60;64.30;;;;;;5063812;28;20103;-70
2022/03/11 11:00:35;;;;;;;23.05;9.73;;;8.70;64.00;;;;;;5062839;28;20397;-69
2022/03/11 11:03:06;;;;;;;16.27;8.98;;;8.80;63.60;;;;;;5065465;28;20094;-70
2022/03/11 11:05:33;;;;;;;20.13;8.82;;;8.90;63.10;;;;;;5061388;28;20519;-70
2022/03/11 11:08:01;;;;;;;17.60;8.65;;;8.90;62.80;;;;;;5064292;28;20028;-72
2022/03/11 11:10:30;;;;;;;19.73;9.25;;;9.00;62.80;;;;;;5064595;28;20035;-70
2022/03/11 11:12:55;;;;;;;16.30;9.27;;;9.10;62.30;;;;;;5064635;28;20445;-68
2022/03/11 11:15:21;;;;;;;18.95;9.52;;;9.10;62.30;;;;;;5064997;28;20124;-69
2022/03/11 11:17:49;;;;;;;17.95;8.77;;;9.20;62.20;;;;;;5062615;28;20059;-70
2022/03/11 11:20:21;;;;;;;19.42;9.98;;;9.30;61.80;;;;;;5067220;28;20448;-70
2022/03/11 11:22:49;;;;;;;16.05;8.68;;;9.40;61.70;;;;;;5062430;28;20066;-71
2022/03/11 11:25:17;;;;;;;15.95;9.23;;;9.40;61.40;;;;;;5063835;28;20520;-70
2022/03/11 11:27:44;;;;;;;17.58;9.18;;;9.50;61.20;;;;;;5064602;28;20036;-70
2022/03/11 11:30:11;;;;;;;20.23;9.15;;;9.50;60.80;;;;;;5068961;28;20637;-70
2022/03/11 11:32:38;;;;;;;16.92;9.05;;;9.50;60.90;;;;;;5060262;28;20119;-72
2022/03/11 11:35:43;;;;;;;18.35;9.00;;;9.70;60.70;;;;;;5064697;28;20029;-71
2022/03/11 11:38:27;;;;;;;17.42;9.35;;;9.70;60.60;;;;;;5064633;28;20115;-71
2022/03/11 11:40:54;;;;;;;13.88;8.40;;;9.70;60.10;;;;;;5063984;28;20056;-70
2022/03/11 11:43:27;;;;;;;18.08;8.93;;;9.80;60.10;;;;;;5068139;28;20032;-70
2022/03/11 11:45:55;;;;;;;19.00;8.40;;;9.90;60.00;;;;;;5065677;28;20092;-71
2022/03/11 11:48:41;;;;;;;19.98;10.13;;;9.90;59.60;;;;;;5070762;28;20433;-70
2022/03/11 11:51:09;;;;;;;21.80;9.25;;;10.00;59.90;;;;;;5073737;28;20567;-71
2022/03/11 11:53:35;;;;;;;16.67;9.07;;;10.10;59.20;;;;;;5063767;28;20025;-70
2022/03/11 11:56:21;;;;;;;15.85;8.82;;;10.30;59.10;;;;;;5065952;28;20111;-71
2022/03/11 11:58:51;;;;;;;17.15;9.23;;;10.40;58.50;;;;;;5078597;28;20169;-71
2022/03/11 12:01:39;;;;;;;18.58;8.93;;;10.40;58.40;;;;;;5069656;28;20055;-70
2022/03/11 12:04:28;;;;;;;16.88;8.30;;;10.50;57.90;;;;;;5059359;28;20558;-71
2022/03/11 12:07:03;;;;;;;18.92;9.55;;;10.50;57.90;;;;;;5058047;28;20028;-70
2022/03/11 12:12:25;;;;;;;17.02;8.90;;;10.50;57.50;;;;;;5063041;28;20089;-71
2022/03/11 12:15:05;;;;;;;17.92;8.38;;;10.50;57.30;;;;;;5070340;28;20043;-70
2022/03/11 12:18:03;;;;;;;19.58;8.88;;;10.50;57.50;;;;;;5069381;28;20021;-70
2022/03/11 12:20:35;;;;;;;19.77;8.50;;;10.60;57.40;;;;;;5072271;28;20024;-70
2022/03/11 12:23:16;;;;;;;16.83;9.32;;;10.70;57.40;;;;;;5057382;28;20033;-70
2022/03/11 12:25:48;;;;;;;17.05;8.63;;;10.90;57.20;;;;;;5068181;28;20024;-70
2022/03/11 12:28:19;;;;;;;16.77;8.25;;;10.90;57.10;;;;;;5064100;28;20473;-71
2022/03/11 12:30:47;;;;;;;24.33;9.15;;;10.90;57.20;;;;;;5056622;28;20033;-70
2022/03/11 12:33:17;;;;;;;17.67;8.68;;;11.10;56.60;;;;;;5060635;28;20028;-70
2022/03/11 12:35:45;;;;;;;17.35;9.23;;;11.10;56.60;;;;;;5073192;28;20466;-70
2022/03/11 12:38:25;;;;;;;16.02;8.30;;;11.10;56.80;;;;;;5080814;28;20027;-70
2022/03/11 12:40:52;;;;;;;16.10;8.90;;;11.20;56.40;;;;;;5071673;28;20062;-70
2022/03/11 12:43:21;;;;;;;22.05;9.18;;;11.20;56.50;;;;;;5071348;28;20504;-70